sensor_id;sensor_type;location;lat;lon;timestamp;pressure;altitude;pressure_sealevel;temperature;humidity
10606;BME280;5350;42.698;23.148;2023-04-22T00:01:22;93332.25;;;7.73;100.00
10606;BME280;5350;42.698;23.148;2023-04-22T00:03:49;93325.25;;;7.68;100.00
10606;BME280;5350;42.698;23.148;2023-04-22T00:06:18;93328.47;;;7.60;100.00
10606;BME280;5350;42.698;23.148;2023-04-22T00:08:45;93324.63;;;7.53;100.00
10606;BME280;5350;42.698;23.148;2023-04-22T00:11:12;93324.09;;;7.22;100.00
10606;BME280;5350;42.698;23.148;2023-04-22T00:13:38;93317.94;;;7.13;100.00
10606;BME280;5350;42.698;23.148;2023-04-22T00:16:05;93325.50;;;7.14;100.00
10606;BME280;5350;42.698;23.148;2023-04-22T00:18:33;93333.56;;;7.18;100.00
10606;BME280;5350;42.698;23.148;2023-04-22T00:21:00;93324.28;;;7.31;100.00
10606;BME280;5350;42.698;23.148;2023-04-22T00:23:28;93335.88;;;7.24;100.00
10606;BME280;5350;42.698;23.148;2023-04-22T00:25:55;93330.78;;;7.38;100.00
10606;BME280;5350;42.698;23.148;2023-04-22T00:28:22;93322.88;;;7.43;100.00
10606;BME280;5350;42.698;23.148;2023-04-22T00:30:49;93336.47;;;7.45;100.00
10606;BME280;5350;42.698;23.148;2023-04-22T00:33:15;93325.22;;;7.45;100.00
10606;BME280;5350;42.698;23.148;2023-04-22T00:35:43;93335.09;;;7.53;100.00
10606;BME280;5350;42.698;23.148;2023-04-22T00:38:10;93333.19;;;7.58;100.00
10606;BME280;5350;42.698;23.148;2023-04-22T00:40:38;93339.53;;;7.23;100.00
10606;BME280;5350;42.698;23.148;2023-04-22T00:43:06;93340.81;;;7.26;100.00
10606;BME280;5350;42.698;23.148;2023-04-22T00:45:35;93338.44;;;7.30;100.00
10606;BME280;5350;42.698;23.148;2023-04-22T00:48:02;93326.16;;;7.30;100.00
10606;BME280;5350;42.698;23.148;2023-04-22T00:50:29;93334.66;;;7.41;100.00
10606;BME280;5350;42.698;23.148;2023-04-22T00:52:56;93334.72;;;7.36;100.00
10606;BME280;5350;42.698;23.148;2023-04-22T00:55:23;93330.50;;;7.40;100.00
10606;BME280;5350;42.698;23.148;2023-04-22T00:57:53;93331.59;;;7.34;100.00
10606;BME280;5350;42.698;23.148;2023-04-22T01:00:20;93338.66;;;7.33;100.00
10606;BME280;5350;42.698;23.148;2023-04-22T01:02:51;93336.47;;;7.45;100.00
10606;BME280;5350;42.698;23.148;2023-04-22T01:05:18;93341.16;;;7.48;100.00
10606;BME280;5350;42.698;23.148;2023-04-22T01:07:45;93341.47;;;7.42;100.00
10606;BME280;5350;42.698;23.148;2023-04-22T01:10:12;93340.56;;;7.28;100.00
10606;BME280;5350;42.698;23.148;2023-04-22T01:12:39;93336.88;;;7.28;100.00
10606;BME280;5350;42.698;23.148;2023-04-22T01:15:08;93340.31;;;7.24;100.00
10606;BME280;5350;42.698;23.148;2023-04-22T01:17:35;93324.84;;;7.28;100.00
10606;BME280;5350;42.698;23.148;2023-04-22T01:20:02;93329.13;;;7.18;100.00
10606;BME280;5350;42.698;23.148;2023-04-22T01:22:33;93338.44;;;7.30;100.00
10606;BME280;5350;42.698;23.148;2023-04-22T01:25:02;93345.91;;;7.41;100.00
10606;BME280;5350;42.698;23.148;2023-04-22T01:27:29;93340.25;;;7.34;100.00
10606;BME280;5350;42.698;23.148;2023-04-22T01:29:56;93346.00;;;7.31;100.00
10606;BME280;5350;42.698;23.148;2023-04-22T01:32:23;93347.94;;;7.20;100.00
10606;BME280;5350;42.698;23.148;2023-04-22T01:34:50;93335.47;;;7.07;100.00
10606;BME280;5350;42.698;23.148;2023-04-22T01:37:17;93345.44;;;7.05;100.00
10606;BME280;5350;42.698;23.148;2023-04-22T01:39:44;93342.28;;;7.08;100.00
10606;BME280;5350;42.698;23.148;2023-04-22T01:42:12;93340.69;;;7.07;100.00
10606;BME280;5350;42.698;23.148;2023-04-22T01:44:39;93343.78;;;7.19;100.00
10606;BME280;5350;42.698;23.148;2023-04-22T01:47:06;93341.19;;;7.14;100.00
10606;BME280;5350;42.698;23.148;2023-04-22T01:49:33;93348.09;;;7.00;100.00
10606;BME280;5350;42.698;23.148;2023-04-22T01:52:00;93338.59;;;7.09;100.00
10606;BME280;5350;42.698;23.148;2023-04-22T01:54:27;93338.69;;;6.99;100.00
10606;BME280;5350;42.698;23.148;2023-04-22T01:56:54;93334.63;;;6.83;100.00
10606;BME280;5350;42.698;23.148;2023-04-22T01:59:24;93339.19;;;7.01;100.00
10606;BME280;5350;42.698;23.148;2023-04-22T02:01:50;93324.69;;;6.80;100.00
10606;BME280;5350;42.698;23.148;2023-04-22T02:04:17;93333.59;;;6.79;100.00
10606;BME280;5350;42.698;23.148;2023-04-22T02:06:44;93332.78;;;6.84;100.00
10606;BME280;5350;42.698;23.148;2023-04-22T02:09:11;93326.75;;;6.88;100.00
10606;BME280;5350;42.698;23.148;2023-04-22T02:11:37;93335.63;;;6.92;100.00
10606;BME280;5350;42.698;23.148;2023-04-22T02:14:04;93326.75;;;6.88;100.00
10606;BME280;5350;42.698;23.148;2023-04-22T02:16:32;93324.69;;;6.80;100.00
10606;BME280;5350;42.698;23.148;2023-04-22T02:18:59;93328.31;;;6.84;100.00
10606;BME280;5350;42.698;23.148;2023-04-22T02:21:27;93330.19;;;6.84;100.00
10606;BME280;5350;42.698;23.148;2023-04-22T02:23:54;93333.38;;;6.76;100.00
10606;BME280;5350;42.698;23.148;2023-04-22T02:26:21;93325.78;;;6.74;100.00
10606;BME280;5350;42.698;23.148;2023-04-22T02:28:48;93325.28;;;6.72;100.00
10606;BME280;5350;42.698;23.148;2023-04-22T02:31:14;93321.66;;;6.68;100.00
10606;BME280;5350;42.698;23.148;2023-04-22T02:33:42;93329.91;;;6.80;100.00
10606;BME280;5350;42.698;23.148;2023-04-22T02:36:09;93327.38;;;6.70;100.00
10606;BME280;5350;42.698;23.148;2023-04-22T02:38:36;93332.09;;;6.73;100.00
10606;BME280;5350;42.698;23.148;2023-04-22T02:41:03;93339.44;;;6.66;100.00
10606;BME280;5350;42.698;23.148;2023-04-22T02:43:30;93339.28;;;6.86;100.00
10606;BME280;5350;42.698;23.148;2023-04-22T02:45:57;93341.22;;;6.76;100.00
10606;BME280;5350;42.698;23.148;2023-04-22T02:48:24;93340.53;;;6.60;100.00
10606;BME280;5350;42.698;23.148;2023-04-22T02:50:52;93342.34;;;6.60;100.00
10606;BME280;5350;42.698;23.148;2023-04-22T02:53:18;93342.63;;;6.58;100.00
10606;BME280;5350;42.698;23.148;2023-04-22T02:55:45;93349.34;;;6.69;100.00
10606;BME280;5350;42.698;23.148;2023-04-22T02:58:12;93347.19;;;6.81;100.00
10606;BME280;5350;42.698;23.148;2023-04-22T03:00:39;93355.31;;;6.75;100.00
10606;BME280;5350;42.698;23.148;2023-04-22T03:03:05;93351.97;;;6.69;100.00
10606;BME280;5350;42.698;23.148;2023-04-22T03:05:32;93350.06;;;6.80;100.00
10606;BME280;5350;42.698;23.148;2023-04-22T03:08:00;93353.97;;;6.82;100.00
10606;BME280;5350;42.698;23.148;2023-04-22T03:10:27;93350.59;;;6.77;100.00
10606;BME280;5350;42.698;23.148;2023-04-22T03:12:53;93354.00;;;6.77;100.00
10606;BME280;5350;42.698;23.148;2023-04-22T03:15:20;93356.31;;;6.84;100.00
10606;BME280;5350;42.698;23.148;2023-04-22T03:17:47;93349.19;;;6.94;100.00
10606;BME280;5350;42.698;23.148;2023-04-22T03:20:14;93343.50;;;6.82;100.00
10606;BME280;5350;42.698;23.148;2023-04-22T03:22:41;93341.97;;;6.76;100.00
10606;BME280;5350;42.698;23.148;2023-04-22T03:25:10;93345.06;;;6.83;100.00
10606;BME280;5350;42.698;23.148;2023-04-22T03:27:37;93355.47;;;6.93;100.00
10606;BME280;5350;42.698;23.148;2023-04-22T03:30:05;93351.25;;;6.97;100.00
10606;BME280;5350;42.698;23.148;2023-04-22T03:32:32;93352.81;;;6.98;100.00
10606;BME280;5350;42.698;23.148;2023-04-22T03:34:59;93344.47;;;6.96;100.00
10606;BME280;5350;42.698;23.148;2023-04-22T03:37:27;93354.94;;;6.96;100.00
10606;BME280;5350;42.698;23.148;2023-04-22T03:39:54;93360.16;;;6.96;100.00
10606;BME280;5350;42.698;23.148;2023-04-22T03:42:22;93362.50;;;6.98;100.00
10606;BME280;5350;42.698;23.148;2023-04-22T03:44:48;93361.16;;;7.00;100.00
10606;BME280;5350;42.698;23.148;2023-04-22T03:47:15;93362.72;;;7.01;100.00
10606;BME280;5350;42.698;23.148;2023-04-22T03:49:42;93364.25;;;7.07;100.00
10606;BME280;5350;42.698;23.148;2023-04-22T03:52:09;93366.81;;;7.12;100.00
10606;BME280;5350;42.698;23.148;2023-04-22T03:54:35;93368.88;;;7.15;100.00
10606;BME280;5350;42.698;23.148;2023-04-22T03:57:02;93373.28;;;7.25;100.00
10606;BME280;5350;42.698;23.148;2023-04-22T03:59:30;93374.31;;;7.24;100.00
10606;BME280;5350;42.698;23.148;2023-04-22T04:01:57;93379.31;;;7.20;100.00
10606;BME280;5350;42.698;23.148;2023-04-22T04:04:24;93380.63;;;7.23;100.00
10606;BME280;5350;42.698;23.148;2023-04-22T04:06:52;93389.69;;;7.31;100.00
10606;BME280;5350;42.698;23.148;2023-04-22T04:09:18;93385.47;;;7.35;100.00
10606;BME280;5350;42.698;23.148;2023-04-22T04:11:45;93391.72;;;7.39;100.00
10606;BME280;5350;42.698;23.148;2023-04-22T04:14:12;93394.31;;;7.44;100.00
10606;BME280;5350;42.698;23.148;2023-04-22T04:16:40;93391.09;;;7.52;100.00
10606;BME280;5350;42.698;23.148;2023-04-22T04:19:07;93400.53;;;7.53;100.00
10606;BME280;5350;42.698;23.148;2023-04-22T04:21:34;93388.06;;;7.40;100.00
10606;BME280;5350;42.698;23.148;2023-04-22T04:24:01;93395.78;;;7.55;100.00
10606;BME280;5350;42.698;23.148;2023-04-22T04:26:28;93398.44;;;7.50;100.00
10606;BME280;5350;42.698;23.148;2023-04-22T04:28:56;93395.59;;;7.46;100.00
10606;BME280;5350;42.698;23.148;2023-04-22T04:31:23;93397.72;;;7.44;100.00
10606;BME280;5350;42.698;23.148;2023-04-22T04:33:52;93396.41;;;7.47;100.00
10606;BME280;5350;42.698;23.148;2023-04-22T04:36:18;93389.97;;;7.63;100.00
10606;BME280;5350;42.698;23.148;2023-04-22T04:38:45;93401.84;;;7.79;100.00
10606;BME280;5350;42.698;23.148;2023-04-22T04:41:12;93409.06;;;7.92;100.00
10606;BME280;5350;42.698;23.148;2023-04-22T04:43:40;93367.25;;;7.82;100.00
10606;BME280;5350;42.698;23.148;2023-04-22T04:46:06;93418.69;;;8.25;100.00
10606;BME280;5350;42.698;23.148;2023-04-22T04:48:33;93409.59;;;8.41;100.00
10606;BME280;5350;42.698;23.148;2023-04-22T04:51:02;93381.38;;;8.33;100.00
10606;BME280;5350;42.698;23.148;2023-04-22T04:53:31;93399.44;;;8.58;100.00
10606;BME280;5350;42.698;23.148;2023-04-22T04:55:57;93418.75;;;8.86;100.00
10606;BME280;5350;42.698;23.148;2023-04-22T04:58:24;93418.81;;;9.00;100.00
10606;BME280;5350;42.698;23.148;2023-04-22T05:00:51;93421.22;;;9.15;100.00
10606;BME280;5350;42.698;23.148;2023-04-22T05:03:18;93429.94;;;9.29;100.00
10606;BME280;5350;42.698;23.148;2023-04-22T05:05:45;93428.13;;;9.43;100.00
10606;BME280;5350;42.698;23.148;2023-04-22T05:08:14;93423.50;;;9.53;100.00
10606;BME280;5350;42.698;23.148;2023-04-22T05:10:41;93421.50;;;9.64;100.00
10606;BME280;5350;42.698;23.148;2023-04-22T05:13:09;93426.09;;;9.72;100.00
10606;BME280;5350;42.698;23.148;2023-04-22T05:15:36;93428.56;;;9.82;100.00
10606;BME280;5350;42.698;23.148;2023-04-22T05:18:03;93434.31;;;9.84;100.00
10606;BME280;5350;42.698;23.148;2023-04-22T05:20:30;93437.06;;;9.93;100.00
10606;BME280;5350;42.698;23.148;2023-04-22T05:22:56;93434.81;;;10.00;100.00
10606;BME280;5350;42.698;23.148;2023-04-22T05:25:24;93380.75;;;9.66;100.00
10606;BME280;5350;42.698;23.148;2023-04-22T05:27:51;93442.53;;;10.10;100.00
10606;BME280;5350;42.698;23.148;2023-04-22T05:30:18;93440.66;;;10.15;100.00
10606;BME280;5350;42.698;23.148;2023-04-22T05:32:45;93443.56;;;10.27;100.00
10606;BME280;5350;42.698;23.148;2023-04-22T05:35:11;93432.03;;;10.10;100.00
10606;BME280;5350;42.698;23.148;2023-04-22T05:37:38;93446.50;;;10.39;100.00
10606;BME280;5350;42.698;23.148;2023-04-22T05:40:06;93442.63;;;10.51;100.00
10606;BME280;5350;42.698;23.148;2023-04-22T05:42:34;93449.41;;;10.52;100.00
10606;BME280;5350;42.698;23.148;2023-04-22T05:45:01;93451.59;;;10.63;100.00
10606;BME280;5350;42.698;23.148;2023-04-22T05:47:28;93452.16;;;10.74;100.00
10606;BME280;5350;42.698;23.148;2023-04-22T05:49:55;93456.72;;;10.82;100.00
10606;BME280;5350;42.698;23.148;2023-04-22T05:52:22;93457.97;;;10.98;100.00
10606;BME280;5350;42.698;23.148;2023-04-22T05:54:48;93456.03;;;11.03;100.00
10606;BME280;5350;42.698;23.148;2023-04-22T05:57:15;93452.78;;;11.06;100.00
10606;BME280;5350;42.698;23.148;2023-04-22T05:59:43;93450.91;;;11.20;100.00
10606;BME280;5350;42.698;23.148;2023-04-22T06:02:10;93445.84;;;11.24;100.00
10606;BME280;5350;42.698;23.148;2023-04-22T06:04:37;93456.47;;;11.33;99.81
10606;BME280;5350;42.698;23.148;2023-04-22T06:07:04;93464.13;;;11.43;99.18
10606;BME280;5350;42.698;23.148;2023-04-22T06:09:30;93439.75;;;11.37;98.05
10606;BME280;5350;42.698;23.148;2023-04-22T06:11:57;93457.44;;;11.59;98.27
10606;BME280;5350;42.698;23.148;2023-04-22T06:14:24;93454.75;;;11.72;98.45
10606;BME280;5350;42.698;23.148;2023-04-22T06:16:52;93456.03;;;11.75;96.99
10606;BME280;5350;42.698;23.148;2023-04-22T06:19:19;93455.50;;;11.86;96.50
10606;BME280;5350;42.698;23.148;2023-04-22T06:21:45;93457.53;;;11.89;92.92
10606;BME280;5350;42.698;23.148;2023-04-22T06:24:12;93461.97;;;12.02;91.66
10606;BME280;5350;42.698;23.148;2023-04-22T06:26:39;93458.28;;;12.12;90.41
10606;BME280;5350;42.698;23.148;2023-04-22T06:29:06;93464.47;;;12.08;89.75
10606;BME280;5350;42.698;23.148;2023-04-22T06:31:32;93464.06;;;12.23;89.43
10606;BME280;5350;42.698;23.148;2023-04-22T06:34:01;93464.91;;;12.32;88.11
10606;BME280;5350;42.698;23.148;2023-04-22T06:36:28;93468.13;;;12.51;87.21
10606;BME280;5350;42.698;23.148;2023-04-22T06:38:56;93466.59;;;12.58;88.08
10606;BME280;5350;42.698;23.148;2023-04-22T06:41:23;93464.13;;;12.70;88.97
10606;BME280;5350;42.698;23.148;2023-04-22T06:43:49;93457.06;;;12.88;89.17
10606;BME280;5350;42.698;23.148;2023-04-22T06:46:16;93464.56;;;13.03;86.83
10606;BME280;5350;42.698;23.148;2023-04-22T06:48:43;93455.63;;;13.21;86.59
10606;BME280;5350;42.698;23.148;2023-04-22T06:51:11;93464.50;;;13.34;82.97
10606;BME280;5350;42.698;23.148;2023-04-22T06:53:38;93457.50;;;13.29;82.57
10606;BME280;5350;42.698;23.148;2023-04-22T06:56:05;93472.91;;;13.44;79.71
10606;BME280;5350;42.698;23.148;2023-04-22T06:58:32;93472.13;;;13.52;78.73
10606;BME280;5350;42.698;23.148;2023-04-22T07:00:58;93471.81;;;13.62;79.05
10606;BME280;5350;42.698;23.148;2023-04-22T07:03:25;93478.53;;;13.60;77.77
10606;BME280;5350;42.698;23.148;2023-04-22T07:05:52;93503.22;;;13.73;79.31
10606;BME280;5350;42.698;23.148;2023-04-22T07:08:20;93471.50;;;13.81;80.90
10606;BME280;5350;42.698;23.148;2023-04-22T07:10:47;93482.53;;;14.00;78.05
10606;BME280;5350;42.698;23.148;2023-04-22T07:13:13;93457.19;;;13.91;77.22
10606;BME280;5350;42.698;23.148;2023-04-22T07:15:40;93480.81;;;13.96;75.80
10606;BME280;5350;42.698;23.148;2023-04-22T07:18:07;93482.53;;;14.09;76.85
10606;BME280;5350;42.698;23.148;2023-04-22T07:20:33;93475.19;;;14.23;76.75
10606;BME280;5350;42.698;23.148;2023-04-22T07:23:00;93482.78;;;14.41;78.40
10606;BME280;5350;42.698;23.148;2023-04-22T07:25:28;93488.28;;;14.36;75.57
10606;BME280;5350;42.698;23.148;2023-04-22T07:27:55;93479.19;;;14.55;74.07
10606;BME280;5350;42.698;23.148;2023-04-22T07:30:22;93489.13;;;14.66;76.40
10606;BME280;5350;42.698;23.148;2023-04-22T07:32:49;93462.78;;;14.70;74.36
10606;BME280;5350;42.698;23.148;2023-04-22T07:35:16;93477.28;;;14.72;75.62
10606;BME280;5350;42.698;23.148;2023-04-22T07:37:43;93483.75;;;14.83;76.14
10606;BME280;5350;42.698;23.148;2023-04-22T07:40:10;93484.78;;;14.99;76.22
10606;BME280;5350;42.698;23.148;2023-04-22T07:42:40;93485.47;;;15.17;73.71
10606;BME280;5350;42.698;23.148;2023-04-22T07:45:07;93492.41;;;15.30;71.27
10606;BME280;5350;42.698;23.148;2023-04-22T07:47:34;93486.78;;;15.32;74.06
10606;BME280;5350;42.698;23.148;2023-04-22T07:50:01;93490.69;;;15.34;69.49
10606;BME280;5350;42.698;23.148;2023-04-22T07:52:27;93490.16;;;15.41;66.31
10606;BME280;5350;42.698;23.148;2023-04-22T07:54:55;93491.13;;;15.36;69.26
10606;BME280;5350;42.698;23.148;2023-04-22T07:57:21;93489.03;;;15.50;68.25
10606;BME280;5350;42.698;23.148;2023-04-22T07:59:50;93487.44;;;15.58;67.26
10606;BME280;5350;42.698;23.148;2023-04-22T08:02:17;93491.13;;;15.65;64.52
10606;BME280;5350;42.698;23.148;2023-04-22T08:04:44;93494.16;;;15.76;65.18
10606;BME280;5350;42.698;23.148;2023-04-22T08:07:10;93491.00;;;16.03;62.54
10606;BME280;5350;42.698;23.148;2023-04-22T08:09:37;93485.28;;;16.13;63.16
10606;BME280;5350;42.698;23.148;2023-04-22T08:12:04;93472.09;;;16.37;62.44
10606;BME280;5350;42.698;23.148;2023-04-22T08:14:31;93474.81;;;16.49;62.29
10606;BME280;5350;42.698;23.148;2023-04-22T08:16:59;93481.38;;;16.64;56.32
10606;BME280;5350;42.698;23.148;2023-04-22T08:19:25;93481.91;;;16.57;55.10
10606;BME280;5350;42.698;23.148;2023-04-22T08:21:52;93470.34;;;16.41;58.34
10606;BME280;5350;42.698;23.148;2023-04-22T08:24:19;93479.47;;;16.52;53.07
10606;BME280;5350;42.698;23.148;2023-04-22T08:26:46;93464.59;;;16.39;51.28
10606;BME280;5350;42.698;23.148;2023-04-22T08:29:12;93465.88;;;16.54;53.73
10606;BME280;5350;42.698;23.148;2023-04-22T08:31:40;93464.22;;;16.61;55.90
10606;BME280;5350;42.698;23.148;2023-04-22T08:34:08;93453.94;;;16.84;57.65
10606;BME280;5350;42.698;23.148;2023-04-22T08:36:35;93457.03;;;16.98;52.81
10606;BME280;5350;42.698;23.148;2023-04-22T08:39:02;93449.41;;;17.09;54.51
10606;BME280;5350;42.698;23.148;2023-04-22T08:41:29;93413.69;;;17.06;55.62
10606;BME280;5350;42.698;23.148;2023-04-22T08:43:59;93452.72;;;17.30;54.33
10606;BME280;5350;42.698;23.148;2023-04-22T08:46:26;93452.59;;;17.38;51.20
10606;BME280;5350;42.698;23.148;2023-04-22T08:48:53;93453.13;;;17.44;52.17
10606;BME280;5350;42.698;23.148;2023-04-22T08:51:21;93433.41;;;17.69;54.62
10606;BME280;5350;42.698;23.148;2023-04-22T08:53:48;93438.56;;;17.90;50.01
10606;BME280;5350;42.698;23.148;2023-04-22T08:56:15;93437.00;;;18.16;49.49
10606;BME280;5350;42.698;23.148;2023-04-22T08:58:42;93417.19;;;18.29;46.04
10606;BME280;5350;42.698;23.148;2023-04-22T09:01:09;93418.53;;;18.23;46.63
10606;BME280;5350;42.698;23.148;2023-04-22T09:03:38;93419.31;;;18.08;46.21
10606;BME280;5350;42.698;23.148;2023-04-22T09:06:06;93415.94;;;18.11;47.20
10606;BME280;5350;42.698;23.148;2023-04-22T09:08:34;93419.25;;;18.20;48.83
10606;BME280;5350;42.698;23.148;2023-04-22T09:11:02;93364.38;;;17.88;48.48
10606;BME280;5350;42.698;23.148;2023-04-22T09:13:29;93409.03;;;18.22;47.35
10606;BME280;5350;42.698;23.148;2023-04-22T09:15:56;93415.97;;;18.55;47.95
10606;BME280;5350;42.698;23.148;2023-04-22T09:18:23;93412.03;;;18.64;45.13
10606;BME280;5350;42.698;23.148;2023-04-22T09:20:54;93407.47;;;18.80;46.26
10606;BME280;5350;42.698;23.148;2023-04-22T09:23:21;93409.34;;;18.80;46.64
10606;BME280;5350;42.698;23.148;2023-04-22T09:25:49;93385.13;;;18.85;47.18
10606;BME280;5350;42.698;23.148;2023-04-22T09:28:17;93413.72;;;19.03;46.43
10606;BME280;5350;42.698;23.148;2023-04-22T09:30:45;93403.19;;;19.42;45.45
10606;BME280;5350;42.698;23.148;2023-04-22T09:33:12;93392.31;;;19.69;41.41
10606;BME280;5350;42.698;23.148;2023-04-22T09:35:40;93387.06;;;19.03;44.44
10606;BME280;5350;42.698;23.148;2023-04-22T09:38:08;93385.69;;;19.44;43.83
10606;BME280;5350;42.698;23.148;2023-04-22T09:40:37;93383.97;;;19.52;43.87
10606;BME280;5350;42.698;23.148;2023-04-22T09:43:06;93378.88;;;19.81;41.28
10606;BME280;5350;42.698;23.148;2023-04-22T09:45:35;93383.16;;;19.67;41.34
10606;BME280;5350;42.698;23.148;2023-04-22T09:48:05;93370.13;;;19.65;38.72
10606;BME280;5350;42.698;23.148;2023-04-22T09:50:32;93375.22;;;19.89;38.47
10606;BME280;5350;42.698;23.148;2023-04-22T09:53:00;93373.78;;;19.96;39.19
10606;BME280;5350;42.698;23.148;2023-04-22T09:55:30;93371.13;;;19.76;39.32
10606;BME280;5350;42.698;23.148;2023-04-22T09:57:57;93378.78;;;19.78;40.47
10606;BME280;5350;42.698;23.148;2023-04-22T10:00:28;93374.00;;;19.68;40.12
10606;BME280;5350;42.698;23.148;2023-04-22T10:02:55;93378.28;;;19.91;39.79
10606;BME280;5350;42.698;23.148;2023-04-22T10:05:22;93372.25;;;19.56;40.73
10606;BME280;5350;42.698;23.148;2023-04-22T10:07:50;93374.94;;;19.56;40.48
10606;BME280;5350;42.698;23.148;2023-04-22T10:10:17;93374.84;;;19.72;41.63
10606;BME280;5350;42.698;23.148;2023-04-22T10:12:45;93362.50;;;19.29;42.54
10606;BME280;5350;42.698;23.148;2023-04-22T10:15:12;93365.44;;;19.24;45.97
10606;BME280;5350;42.698;23.148;2023-04-22T10:17:41;93348.22;;;19.22;48.28
10606;BME280;5350;42.698;23.148;2023-04-22T10:20:10;93359.91;;;19.48;43.73
10606;BME280;5350;42.698;23.148;2023-04-22T10:22:40;93352.72;;;19.17;44.19
10606;BME280;5350;42.698;23.148;2023-04-22T10:25:12;93364.00;;;19.11;42.28
10606;BME280;5350;42.698;23.148;2023-04-22T10:27:39;93365.91;;;19.10;43.49
10606;BME280;5350;42.698;23.148;2023-04-22T10:30:08;93352.88;;;18.90;42.51
10606;BME280;5350;42.698;23.148;2023-04-22T10:32:35;93353.94;;;19.20;45.46
10606;BME280;5350;42.698;23.148;2023-04-22T10:35:12;93350.47;;;19.20;42.03
10606;BME280;5350;42.698;23.148;2023-04-22T10:37:42;93354.19;;;19.15;42.08
10606;BME280;5350;42.698;23.148;2023-04-22T10:40:13;93347.94;;;19.42;43.63
10606;BME280;5350;42.698;23.148;2023-04-22T10:42:41;93347.94;;;19.61;43.24
10606;BME280;5350;42.698;23.148;2023-04-22T10:45:12;93343.34;;;19.77;42.82
10606;BME280;5350;42.698;23.148;2023-04-22T10:47:40;93351.09;;;19.86;38.91
10606;BME280;5350;42.698;23.148;2023-04-22T10:50:20;93333.69;;;19.92;40.87
10606;BME280;5350;42.698;23.148;2023-04-22T10:52:49;93336.53;;;20.03;41.26
10606;BME280;5350;42.698;23.148;2023-04-22T10:55:17;93340.88;;;20.30;39.31
10606;BME280;5350;42.698;23.148;2023-04-22T10:57:46;93292.84;;;20.11;40.28
10606;BME280;5350;42.698;23.148;2023-04-22T11:00:22;93336.56;;;20.67;37.77
10606;BME280;5350;42.698;23.148;2023-04-22T11:02:56;93337.13;;;20.57;37.44
10606;BME280;5350;42.698;23.148;2023-04-22T11:05:33;93328.03;;;20.61;37.01
10606;BME280;5350;42.698;23.148;2023-04-22T11:08:02;93329.97;;;20.87;35.76
10606;BME280;5350;42.698;23.148;2023-04-22T11:10:34;93323.56;;;20.92;36.70
10606;BME280;5350;42.698;23.148;2023-04-22T11:13:05;93329.84;;;21.29;36.69
10606;BME280;5350;42.698;23.148;2023-04-22T11:15:35;93332.81;;;20.98;36.58
10606;BME280;5350;42.698;23.148;2023-04-22T11:18:03;93327.44;;;21.20;36.72
10606;BME280;5350;42.698;23.148;2023-04-22T11:20:34;93329.56;;;21.37;35.83
10606;BME280;5350;42.698;23.148;2023-04-22T11:23:01;93325.31;;;21.33;34.93
10606;BME280;5350;42.698;23.148;2023-04-22T11:25:28;93318.97;;;21.15;34.32
10606;BME280;5350;42.698;23.148;2023-04-22T11:27:56;93336.50;;;21.42;34.75
10606;BME280;5350;42.698;23.148;2023-04-22T11:30:24;93340.09;;;21.23;34.00
10606;BME280;5350;42.698;23.148;2023-04-22T11:32:52;93351.09;;;21.18;35.05
10606;BME280;5350;42.698;23.148;2023-04-22T11:35:22;93350.50;;;20.80;36.06
10606;BME280;5350;42.698;23.148;2023-04-22T11:37:52;93344.03;;;20.58;36.77
10606;BME280;5350;42.698;23.148;2023-04-22T11:40:21;93368.56;;;20.22;38.62
10606;BME280;5350;42.698;23.148;2023-04-22T11:42:49;93376.31;;;19.50;40.24
10606;BME280;5350;42.698;23.148;2023-04-22T11:45:17;93385.88;;;18.70;43.66
10606;BME280;5350;42.698;23.148;2023-04-22T11:47:44;93382.84;;;18.24;43.73
10606;BME280;5350;42.698;23.148;2023-04-22T11:50:12;93386.78;;;17.60;46.23
10606;BME280;5350;42.698;23.148;2023-04-22T11:52:44;93392.25;;;17.79;46.03
10606;BME280;5350;42.698;23.148;2023-04-22T11:55:12;93379.00;;;17.94;47.17
10606;BME280;5350;42.698;23.148;2023-04-22T11:57:40;93380.44;;;18.35;46.79
10606;BME280;5350;42.698;23.148;2023-04-22T12:00:11;93386.31;;;18.72;45.63
10606;BME280;5350;42.698;23.148;2023-04-22T12:02:39;93391.91;;;18.98;44.38
10606;BME280;5350;42.698;23.148;2023-04-22T12:05:08;93387.91;;;19.23;44.51
10606;BME280;5350;42.698;23.148;2023-04-22T12:07:36;93395.84;;;19.54;44.81
10606;BME280;5350;42.698;23.148;2023-04-22T12:10:05;93394.00;;;19.39;44.07
10606;BME280;5350;42.698;23.148;2023-04-22T12:12:33;93389.66;;;19.88;44.87
10606;BME280;5350;42.698;23.148;2023-04-22T12:15:09;93394.31;;;19.91;43.51
10606;BME280;5350;42.698;23.148;2023-04-22T12:17:36;93397.00;;;19.38;44.54
10606;BME280;5350;42.698;23.148;2023-04-22T12:20:03;93389.72;;;19.19;45.46
10606;BME280;5350;42.698;23.148;2023-04-22T12:22:31;93397.75;;;18.57;46.94
10606;BME280;5350;42.698;23.148;2023-04-22T12:24:59;93391.38;;;18.61;47.42
10606;BME280;5350;42.698;23.148;2023-04-22T12:27:26;93396.81;;;18.96;48.83
10606;BME280;5350;42.698;23.148;2023-04-22T12:29:55;93385.66;;;18.75;45.53
10606;BME280;5350;42.698;23.148;2023-04-22T12:32:23;93397.84;;;18.76;44.89
10606;BME280;5350;42.698;23.148;2023-04-22T12:34:51;93387.28;;;18.79;45.47
10606;BME280;5350;42.698;23.148;2023-04-22T12:37:18;93377.31;;;18.61;46.25
10606;BME280;5350;42.698;23.148;2023-04-22T12:39:44;93388.69;;;19.08;46.41
10606;BME280;5350;42.698;23.148;2023-04-22T12:42:11;93386.69;;;19.21;46.05
10606;BME280;5350;42.698;23.148;2023-04-22T12:44:38;93386.91;;;19.47;46.75
10606;BME280;5350;42.698;23.148;2023-04-22T12:47:07;93381.13;;;19.79;44.67
10606;BME280;5350;42.698;23.148;2023-04-22T12:49:34;93388.28;;;20.17;43.19
10606;BME280;5350;42.698;23.148;2023-04-22T12:52:02;93376.69;;;20.48;42.99
10606;BME280;5350;42.698;23.148;2023-04-22T12:54:29;93367.47;;;20.68;42.57
10606;BME280;5350;42.698;23.148;2023-04-22T12:56:55;93381.91;;;21.09;42.93
10606;BME280;5350;42.698;23.148;2023-04-22T12:59:23;93375.59;;;20.98;39.08
10606;BME280;5350;42.698;23.148;2023-04-22T13:01:49;93376.72;;;21.19;40.91